Arkansas International Airport Blytheville US
ICAO: KBYH
IATA: BYH
Category: Medium
Scheduled Services: No

Elevation: 254 ft
TransAlt. 18000 ft.

Airport Communications:
MEMPHIS CNTR:134.65
CTAF/UNICOM:122.7

KBYH Zoom In..

Runways:

(A) RW 18 length 11602 ft width 150 ft
ILS 110.30 / hdg 179

(B) RW 36 length 11602 ft width 150 ft
---- / hdg 359

Location; KBYH
Day. 24 / Time. 21.50 Zulu
* Altimeter: 29.98
* Temperature: 17° c. 62.6°f.
* Wind from: 010° Speed 07 kn.
Dewpoint: 14° c.
Visibility: 10 Statute Miles.
Clouds: Scattered 2700 ft.
Clouds: Scattered 4300 ft.
Clouds: Broken 6000 ft.
Clouds: Broken 11000 ft.

KBYH 242150Z 01007KT 10SM SCT027 SCT043 BKN060 BKN110 17/14 A2998 RMK LAST


Wind From 010°
Speed 07 kn.

  YouTube Music Video
 
jpsmedia.com for Web Design  worldairports.se 2018   terms of use